createdAt,value
2019-05-10T00:00:07.007Z,0.00
2019-05-10T00:01:06.863Z,0.00
2019-05-10T00:02:06.853Z,0.00
2019-05-10T00:03:06.840Z,0.00
2019-05-10T00:04:06.829Z,0.00
2019-05-10T00:05:06.818Z,0.00
2019-05-10T00:06:06.868Z,0.00
2019-05-10T00:07:06.795Z,0.00
2019-05-10T00:08:06.787Z,0.00
2019-05-10T00:09:06.774Z,0.00
2019-05-10T00:10:06.762Z,0.00
2019-05-10T00:11:06.756Z,0.00
2019-05-10T00:12:06.803Z,0.00
2019-05-10T00:13:06.727Z,0.00
2019-05-10T00:14:06.716Z,0.00
2019-05-10T00:15:06.704Z,0.00
2019-05-10T00:16:06.693Z,0.00
2019-05-10T00:17:06.681Z,0.00
2019-05-10T00:18:06.730Z,0.00
2019-05-10T00:19:06.665Z,0.00
2019-05-10T00:20:06.654Z,0.00
2019-05-10T00:21:06.635Z,0.00
2019-05-10T00:22:06.623Z,0.00
2019-05-10T00:23:06.614Z,0.00
2019-05-10T00:24:06.711Z,0.00
2019-05-10T00:25:06.590Z,0.00
2019-05-10T00:26:06.578Z,0.00
2019-05-10T00:27:06.569Z,0.00
2019-05-10T00:28:06.561Z,0.00
2019-05-10T00:29:06.544Z,0.00
2019-05-10T00:30:06.602Z,0.00
2019-05-10T00:31:06.520Z,0.00
2019-05-10T00:32:06.512Z,0.00
2019-05-10T00:33:06.499Z,0.00
2019-05-10T00:34:06.491Z,0.00
2019-05-10T00:35:06.477Z,0.00
2019-05-10T00:36:06.567Z,0.00
2019-05-10T00:37:06.454Z,0.00
2019-05-10T00:38:06.441Z,0.00
2019-05-10T00:39:06.441Z,0.00
2019-05-10T00:40:06.464Z,0.00
2019-05-10T00:41:06.406Z,0.00
2019-05-10T00:42:06.490Z,0.00
2019-05-10T00:43:06.384Z,0.00
2019-05-10T00:44:06.374Z,0.00
2019-05-10T00:45:06.362Z,0.00
2019-05-10T00:46:06.351Z,0.00
2019-05-10T00:47:06.339Z,0.00
2019-05-10T00:48:06.402Z,0.00
2019-05-10T00:49:06.316Z,0.00
2019-05-10T00:50:06.304Z,0.00
2019-05-10T00:51:06.293Z,0.00
2019-05-10T00:52:06.282Z,0.00
2019-05-10T00:53:06.269Z,0.00
2019-05-10T00:54:06.368Z,0.00
2019-05-10T00:55:18.477Z,0.00
2019-05-10T00:56:07.233Z,0.00
2019-05-10T00:57:06.223Z,0.00
2019-05-10T00:58:06.211Z,0.00
2019-05-10T00:59:06.202Z,0.00
2019-05-10T01:00:06.265Z,0.00
2019-05-10T01:01:06.179Z,0.00
2019-05-10T01:02:06.166Z,0.00
2019-05-10T01:03:06.161Z,0.00
2019-05-10T01:04:06.142Z,0.00
2019-05-10T01:05:06.133Z,0.00
2019-05-10T01:06:06.210Z,0.00
2019-05-10T01:07:06.110Z,0.00
2019-05-10T01:08:06.097Z,0.00
2019-05-10T01:09:06.092Z,0.00
2019-05-10T01:10:06.075Z,0.00
2019-05-10T01:11:06.065Z,0.00
2019-05-10T01:12:06.120Z,0.00
2019-05-10T01:13:06.042Z,0.00
2019-05-10T01:14:06.030Z,0.00
2019-05-10T01:15:06.017Z,0.00
2019-05-10T01:16:06.005Z,0.00
2019-05-10T01:17:05.995Z,0.00
2019-05-10T01:18:06.053Z,0.00
2019-05-10T01:19:05.972Z,0.00
2019-05-10T01:20:05.960Z,0.00
2019-05-10T01:21:05.947Z,0.00
2019-05-10T01:22:05.936Z,0.00
2019-05-10T01:23:05.924Z,0.00
2019-05-10T01:24:05.997Z,0.00
2019-05-10T01:25:05.904Z,0.00
2019-05-10T01:26:05.890Z,0.00
2019-05-10T01:27:05.878Z,0.00
2019-05-10T01:28:05.909Z,0.00
2019-05-10T01:29:05.855Z,0.00
2019-05-10T01:30:05.913Z,0.00
2019-05-10T01:31:05.832Z,0.00
2019-05-10T01:32:05.821Z,0.00
2019-05-10T01:33:05.809Z,0.00
2019-05-10T01:34:05.800Z,0.00
2019-05-10T01:35:05.787Z,0.00
2019-05-10T01:36:05.844Z,0.00
2019-05-10T01:37:05.763Z,0.00
2019-05-10T01:38:05.752Z,0.00
2019-05-10T01:39:05.739Z,0.00
2019-05-10T01:40:05.728Z,0.00
2019-05-10T01:41:05.725Z,0.00
2019-05-10T01:42:05.768Z,0.00
2019-05-10T01:43:05.695Z,0.00
2019-05-10T01:44:05.745Z,0.00
2019-05-10T01:45:05.673Z,0.00
2019-05-10T01:46:05.659Z,0.00
2019-05-10T01:47:05.648Z,0.00
2019-05-10T01:48:05.710Z,0.00
2019-05-10T01:49:05.624Z,0.00
2019-05-10T01:50:05.617Z,0.00
2019-05-10T01:51:05.601Z,0.00
2019-05-10T01:52:05.591Z,0.00
2019-05-10T01:53:05.597Z,0.00
2019-05-10T01:54:05.638Z,0.00
2019-05-10T01:55:05.555Z,0.00
2019-05-10T01:56:05.548Z,0.00
2019-05-10T01:57:05.550Z,0.00
2019-05-10T01:58:05.521Z,0.00
2019-05-10T01:59:05.510Z,0.00
2019-05-10T02:00:05.575Z,0.00
2019-05-10T02:01:05.493Z,0.00
2019-05-10T02:02:05.485Z,0.00
2019-05-10T02:03:05.471Z,0.00
2019-05-10T02:04:05.455Z,0.00
2019-05-10T02:05:05.442Z,0.00
2019-05-10T02:06:05.512Z,0.00
2019-05-10T02:07:05.487Z,0.00
2019-05-10T02:08:05.426Z,0.00
2019-05-10T02:09:05.397Z,0.00
2019-05-10T02:10:05.391Z,0.00
2019-05-10T02:11:05.374Z,0.00
2019-05-10T02:12:05.432Z,0.00
2019-05-10T02:13:05.352Z,0.00
2019-05-10T02:14:05.341Z,0.00
2019-05-10T02:15:05.329Z,0.00
2019-05-10T02:16:05.317Z,0.00
2019-05-10T02:17:05.306Z,0.00
2019-05-10T02:18:05.369Z,0.00
2019-05-10T02:19:05.284Z,0.00
2019-05-10T02:20:05.273Z,0.00
2019-05-10T02:21:05.263Z,0.00
2019-05-10T02:22:05.253Z,0.00
2019-05-10T02:23:05.238Z,0.00
2019-05-10T02:24:05.293Z,0.00
2019-05-10T02:25:05.216Z,0.00
2019-05-10T02:26:09.364Z,0.00
2019-05-10T02:27:05.192Z,0.00
2019-05-10T02:28:05.185Z,0.00
2019-05-10T02:29:05.171Z,0.00
2019-05-10T02:30:05.232Z,0.00
2019-05-10T02:31:05.153Z,0.00
2019-05-10T02:32:05.138Z,0.00
2019-05-10T02:33:05.130Z,0.00
2019-05-10T02:34:05.115Z,0.00
2019-05-10T02:35:05.103Z,0.00
2019-05-10T02:36:05.159Z,0.00
2019-05-10T02:37:05.079Z,0.00
2019-05-10T02:38:05.069Z,0.00
2019-05-10T02:39:05.058Z,0.00
2019-05-10T02:40:05.045Z,0.00
2019-05-10T02:41:05.047Z,0.00
2019-05-10T02:42:05.086Z,0.00
2019-05-10T02:43:05.013Z,0.00
2019-05-10T02:44:05.002Z,0.00
2019-05-10T02:45:05.004Z,0.00
2019-05-10T02:46:04.978Z,0.00
2019-05-10T02:47:04.973Z,0.00
2019-05-10T02:48:05.022Z,0.00
2019-05-10T02:49:04.951Z,0.00
2019-05-10T02:50:04.932Z,0.00
2019-05-10T02:51:04.932Z,0.00
2019-05-10T02:52:04.910Z,0.00
2019-05-10T02:53:04.899Z,0.00
2019-05-10T02:54:04.950Z,0.00
2019-05-10T02:55:04.875Z,0.00
2019-05-10T02:56:04.872Z,0.00
2019-05-10T02:57:04.861Z,0.00
2019-05-10T02:58:04.845Z,0.00
2019-05-10T02:59:04.829Z,0.00
2019-05-10T03:00:04.889Z,0.00
2019-05-10T03:01:04.819Z,0.00
2019-05-10T03:02:04.796Z,0.00
2019-05-10T03:03:04.785Z,0.00
2019-05-10T03:04:04.773Z,0.00
2019-05-10T03:05:04.760Z,0.00
2019-05-10T03:06:04.820Z,0.00
2019-05-10T03:07:04.740Z,0.00
2019-05-10T03:08:04.730Z,0.00
2019-05-10T03:09:04.715Z,0.00
2019-05-10T03:10:04.706Z,0.00
2019-05-10T03:11:04.695Z,0.00
2019-05-10T03:12:04.745Z,0.00
2019-05-10T03:13:04.680Z,0.00
2019-05-10T03:14:04.663Z,0.00
2019-05-10T03:15:04.653Z,0.00
2019-05-10T03:16:04.639Z,0.00
2019-05-10T03:17:04.625Z,0.00
2019-05-10T03:18:04.696Z,0.00
2019-05-10T03:19:04.605Z,0.00
2019-05-10T03:20:04.591Z,0.00
2019-05-10T03:21:04.580Z,0.00
2019-05-10T03:22:04.569Z,0.00
2019-05-10T03:23:04.557Z,0.00
2019-05-10T03:24:04.613Z,0.00
2019-05-10T03:25:04.534Z,0.00
2019-05-10T03:26:04.522Z,0.00
2019-05-10T03:27:04.512Z,0.00
2019-05-10T03:28:04.501Z,5.62
2019-05-10T03:29:04.486Z,5.62
2019-05-10T03:30:04.791Z,5.62
2019-05-10T03:31:04.465Z,5.62
2019-05-10T03:32:04.454Z,5.62
2019-05-10T03:33:04.454Z,5.62
2019-05-10T03:34:04.467Z,5.62
2019-05-10T03:35:04.420Z,5.62
2019-05-10T03:36:04.475Z,5.62
2019-05-10T03:37:04.401Z,5.62
2019-05-10T03:38:04.390Z,11.25
2019-05-10T03:39:04.378Z,11.25
2019-05-10T03:40:04.363Z,11.25
2019-05-10T03:41:04.351Z,11.25
2019-05-10T03:42:04.413Z,11.25
2019-05-10T03:43:04.327Z,16.88
2019-05-10T03:44:04.328Z,16.88
2019-05-10T03:45:04.305Z,16.88
2019-05-10T03:46:04.295Z,16.88
2019-05-10T03:47:04.282Z,22.50
2019-05-10T03:48:04.333Z,22.50
2019-05-10T03:49:04.259Z,22.50
2019-05-10T03:50:04.247Z,22.50
2019-05-10T03:51:04.236Z,28.12
2019-05-10T03:52:04.228Z,28.12
2019-05-10T03:53:04.215Z,28.12
2019-05-10T03:54:04.267Z,33.75
2019-05-10T03:55:04.200Z,33.75
2019-05-10T03:56:04.203Z,33.75
2019-05-10T03:57:13.113Z,33.75
2019-05-10T03:58:05.166Z,33.75
2019-05-10T03:59:04.144Z,33.75
2019-05-10T04:00:04.199Z,39.38
2019-05-10T04:01:04.124Z,45.00
2019-05-10T04:02:04.113Z,50.62
2019-05-10T04:03:04.097Z,50.62
2019-05-10T04:04:04.091Z,56.25
2019-05-10T04:05:04.074Z,56.25
2019-05-10T04:06:04.125Z,50.62
2019-05-10T04:07:04.070Z,45.00
2019-05-10T04:08:04.040Z,45.00
2019-05-10T04:09:04.029Z,50.62
2019-05-10T04:10:04.137Z,67.50
2019-05-10T04:11:04.005Z,78.75
2019-05-10T04:12:04.056Z,90.00
2019-05-10T04:13:03.983Z,95.62
2019-05-10T04:14:03.982Z,101.25
2019-05-10T04:15:03.961Z,106.88
2019-05-10T04:16:03.952Z,123.75
2019-05-10T04:17:03.936Z,135.00
2019-05-10T04:18:03.991Z,140.62
2019-05-10T04:19:03.915Z,146.25
2019-05-10T04:20:03.909Z,146.25
2019-05-10T04:21:03.890Z,151.88
2019-05-10T04:22:03.880Z,151.88
2019-05-10T04:23:03.868Z,163.12
2019-05-10T04:24:03.925Z,174.38
2019-05-10T04:25:03.853Z,180.00
2019-05-10T04:26:03.836Z,174.38
2019-05-10T04:27:03.822Z,174.38
2019-05-10T04:28:03.813Z,174.38
2019-05-10T04:29:03.798Z,185.62
2019-05-10T04:30:03.876Z,191.25
2019-05-10T04:31:03.821Z,208.12
2019-05-10T04:32:03.777Z,230.62
2019-05-10T04:33:03.752Z,258.75
2019-05-10T04:34:03.755Z,281.25
2019-05-10T04:35:03.736Z,292.50
2019-05-10T04:36:03.784Z,298.12
2019-05-10T04:37:03.727Z,281.25
2019-05-10T04:38:03.699Z,264.38
2019-05-10T04:39:03.690Z,253.12
2019-05-10T04:40:03.671Z,241.88
2019-05-10T04:41:03.670Z,230.62
2019-05-10T04:42:03.709Z,236.25
2019-05-10T04:43:03.640Z,253.12
2019-05-10T04:44:03.623Z,275.62
2019-05-10T04:45:03.614Z,275.62
2019-05-10T04:46:03.602Z,275.62
2019-05-10T04:47:03.592Z,275.62
2019-05-10T04:48:03.646Z,275.62
2019-05-10T04:49:03.575Z,275.62
2019-05-10T04:50:03.566Z,275.62
2019-05-10T04:51:03.545Z,281.25
2019-05-10T04:52:03.532Z,286.88
2019-05-10T04:53:03.522Z,292.50
2019-05-10T04:54:03.569Z,292.50
2019-05-10T04:55:03.497Z,298.12
2019-05-10T04:56:03.490Z,303.75
2019-05-10T04:57:03.483Z,292.50
2019-05-10T04:58:03.464Z,286.88
2019-05-10T04:59:03.453Z,292.50
2019-05-10T05:00:03.512Z,286.88
2019-05-10T05:01:03.431Z,281.25
2019-05-10T05:02:03.423Z,281.25
2019-05-10T05:03:03.410Z,275.62
2019-05-10T05:04:03.439Z,270.00
2019-05-10T05:05:03.393Z,270.00
2019-05-10T05:06:03.436Z,275.62
2019-05-10T05:07:03.369Z,275.62
2019-05-10T05:08:06.320Z,281.25
2019-05-10T05:09:03.338Z,286.88
2019-05-10T05:10:03.381Z,286.88
2019-05-10T05:11:03.320Z,281.25
2019-05-10T05:12:03.375Z,281.25
2019-05-10T05:13:03.301Z,286.88
2019-05-10T05:14:03.291Z,292.50
2019-05-10T05:15:03.269Z,298.12
2019-05-10T05:16:03.257Z,286.88
2019-05-10T05:17:03.245Z,281.25
2019-05-10T05:18:03.298Z,281.25
2019-05-10T05:19:03.222Z,281.25
2019-05-10T05:20:03.211Z,292.50
2019-05-10T05:21:03.200Z,298.12
2019-05-10T05:22:03.190Z,309.38
2019-05-10T05:23:03.178Z,303.75
2019-05-10T05:24:03.247Z,315.00
2019-05-10T05:25:03.779Z,320.62
2019-05-10T05:26:03.142Z,326.25
2019-05-10T05:27:03.206Z,331.88
2019-05-10T05:28:07.910Z,337.50
2019-05-10T05:29:04.170Z,337.50
2019-05-10T05:30:03.096Z,348.75
2019-05-10T05:31:03.092Z,354.38
2019-05-10T05:32:03.633Z,371.25
2019-05-10T05:33:03.064Z,393.75
2019-05-10T05:34:04.982Z,630.00
2019-05-10T05:35:03.105Z,939.38
2019-05-10T05:36:03.028Z,1108.12
2019-05-10T05:37:03.034Z,646.88
2019-05-10T05:38:03.005Z,1186.88
2019-05-10T05:39:03.011Z,1153.12
2019-05-10T05:40:02.982Z,1192.50
2019-05-10T05:41:03.034Z,1282.50
2019-05-10T05:42:02.960Z,1350.00
2019-05-10T05:43:08.120Z,1355.62
2019-05-10T05:44:03.944Z,1372.50
2019-05-10T05:45:02.985Z,1406.25
2019-05-10T05:46:02.912Z,1411.88
2019-05-10T05:47:04.817Z,1417.50
2019-05-10T05:48:02.891Z,1423.12
2019-05-10T05:49:02.880Z,1085.62
2019-05-10T05:50:02.868Z,1518.75
2019-05-10T05:51:02.879Z,1575.00
2019-05-10T05:52:02.851Z,1648.12
2019-05-10T05:53:02.900Z,1608.75
2019-05-10T05:54:04.217Z,1659.38
2019-05-10T05:55:02.811Z,1659.38
2019-05-10T05:56:08.879Z,1704.38
2019-05-10T05:57:03.788Z,1710.00
2019-05-10T05:58:05.000Z,1777.50
2019-05-10T05:59:02.823Z,1816.88
2019-05-10T06:00:03.951Z,1800.00
2019-05-10T06:01:02.745Z,1766.25
2019-05-10T06:02:07.373Z,1788.75
2019-05-10T06:03:03.718Z,1833.75
2019-05-10T06:04:06.375Z,613.12
2019-05-10T06:05:03.943Z,1316.25
2019-05-10T06:06:02.685Z,1901.25
2019-05-10T06:07:02.672Z,1946.25
2019-05-10T06:08:02.722Z,1918.12
2019-05-10T06:09:02.656Z,1968.75
2019-05-10T06:10:02.636Z,1935.00
2019-05-10T06:11:02.687Z,2013.75
2019-05-10T06:12:07.367Z,1687.50
2019-05-10T06:13:03.602Z,1991.25
2019-05-10T06:14:09.991Z,2041.88
2019-05-10T06:15:03.579Z,2120.62
2019-05-10T06:16:06.454Z,2148.75
2019-05-10T06:17:03.621Z,2154.38
2019-05-10T06:18:03.579Z,2356.88
2019-05-10T06:19:03.536Z,2182.50
2019-05-10T06:20:05.931Z,2081.25
2019-05-10T06:21:02.512Z,2041.88
2019-05-10T06:22:04.781Z,2165.62
2019-05-10T06:23:07.130Z,2317.50
2019-05-10T06:24:07.375Z,2328.75
2019-05-10T06:25:03.483Z,2266.88
2019-05-10T06:26:02.453Z,2233.12
2019-05-10T06:27:03.513Z,2205.00
2019-05-10T06:28:02.431Z,2351.25
2019-05-10T06:29:04.497Z,2385.00
2019-05-10T06:30:02.407Z,2126.25
2019-05-10T06:31:02.399Z,2413.12
2019-05-10T06:32:02.390Z,2446.88
2019-05-10T06:33:12.129Z,2430.00
2019-05-10T06:34:03.423Z,2407.50
2019-05-10T06:35:02.506Z,2356.88
2019-05-10T06:36:02.338Z,2418.75
2019-05-10T06:37:02.331Z,2430.00
2019-05-10T06:38:02.319Z,2413.12
2019-05-10T06:39:02.305Z,2379.38
2019-05-10T06:40:02.386Z,2486.25
2019-05-10T06:41:02.289Z,2497.50
2019-05-10T06:42:02.274Z,2469.38
2019-05-10T06:43:06.791Z,2497.50
2019-05-10T06:44:03.251Z,2565.00
2019-05-10T06:45:05.105Z,2553.75
2019-05-10T06:46:03.290Z,2615.62
2019-05-10T06:47:08.048Z,2323.12
2019-05-10T06:48:03.201Z,2666.25
2019-05-10T06:49:08.300Z,2660.62
2019-05-10T06:50:03.181Z,2694.38
2019-05-10T06:51:02.865Z,2430.00
2019-05-10T06:52:03.216Z,742.50
2019-05-10T06:53:07.559Z,787.50
2019-05-10T06:54:03.141Z,753.75
2019-05-10T06:55:02.125Z,545.62
2019-05-10T06:56:02.108Z,568.12
2019-05-10T06:57:02.135Z,573.75
2019-05-10T06:58:02.148Z,759.38
2019-05-10T06:59:13.038Z,725.62
2019-05-10T07:00:06.419Z,787.50
2019-05-10T07:01:02.053Z,781.88
2019-05-10T07:02:02.042Z,860.62
2019-05-10T07:03:02.030Z,928.12
2019-05-10T07:04:02.079Z,871.88
2019-05-10T07:05:02.012Z,810.00
2019-05-10T07:06:02.000Z,838.12
2019-05-10T07:07:01.986Z,877.50
2019-05-10T07:08:14.038Z,826.88
2019-05-10T07:09:03.027Z,956.25
2019-05-10T07:10:10.323Z,1130.62
2019-05-10T07:11:02.938Z,1170.00
2019-05-10T07:12:01.931Z,1018.12
2019-05-10T07:13:03.555Z,1136.25
2019-05-10T07:14:01.901Z,1271.25
2019-05-10T07:15:03.227Z,1209.38
2019-05-10T07:16:01.882Z,1136.25
2019-05-10T07:17:02.978Z,1164.38
2019-05-10T07:18:01.855Z,1293.75
2019-05-10T07:19:02.287Z,1299.38
2019-05-10T07:20:01.833Z,1366.88
2019-05-10T07:21:06.697Z,1456.88
2019-05-10T07:22:02.807Z,1361.25
2019-05-10T07:23:06.107Z,1456.88
2019-05-10T07:24:02.786Z,1541.25
2019-05-10T07:25:04.526Z,1552.50
2019-05-10T07:26:01.764Z,1518.75
2019-05-10T07:27:02.850Z,1473.75
2019-05-10T07:28:01.739Z,1507.50
2019-05-10T07:29:01.728Z,1552.50
2019-05-10T07:30:01.720Z,1541.25
2019-05-10T07:31:01.704Z,1580.62
2019-05-10T07:32:01.693Z,1670.62
2019-05-10T07:33:02.048Z,1681.88
2019-05-10T07:34:01.673Z,1687.50
2019-05-10T07:35:01.667Z,1721.25
2019-05-10T07:36:01.656Z,1715.62
2019-05-10T07:37:02.055Z,1839.38
2019-05-10T07:38:01.631Z,1833.75
2019-05-10T07:39:02.688Z,1755.00
2019-05-10T07:40:03.505Z,1558.12
2019-05-10T07:41:01.590Z,1935.00
2019-05-10T07:42:06.664Z,1974.38
2019-05-10T07:43:02.566Z,1856.25
2019-05-10T07:44:08.094Z,1918.12
2019-05-10T07:45:02.607Z,1726.88
2019-05-10T07:46:06.392Z,1743.75
2019-05-10T07:47:02.523Z,1710.00
2019-05-10T07:48:02.342Z,1800.00
2019-05-10T07:49:02.497Z,1642.50
2019-05-10T07:50:03.911Z,1569.38
2019-05-10T07:51:02.536Z,1383.75
2019-05-10T07:52:03.089Z,1226.25
2019-05-10T07:53:01.453Z,1271.25
2019-05-10T07:54:04.681Z,1271.25
2019-05-10T07:55:01.443Z,1389.38
2019-05-10T07:56:06.177Z,1456.88
2019-05-10T07:57:02.470Z,1366.88
2019-05-10T07:58:05.019Z,1288.12
2019-05-10T07:59:02.389Z,1170.00
2019-05-10T08:00:03.616Z,1023.75
2019-05-10T08:01:01.366Z,883.12
2019-05-10T08:02:05.770Z,776.25
2019-05-10T08:03:15.134Z,765.00
2019-05-10T08:04:02.326Z,826.88
2019-05-10T08:05:04.949Z,950.62
2019-05-10T08:06:02.306Z,1068.75
2019-05-10T08:07:01.293Z,1147.50
2019-05-10T08:08:01.283Z,1220.62
2019-05-10T08:09:06.295Z,1231.88
2019-05-10T08:10:04.745Z,1215.00
2019-05-10T08:11:01.251Z,1170.00
2019-05-10T08:12:05.144Z,1220.62
2019-05-10T08:13:03.530Z,1254.38
2019-05-10T08:14:06.075Z,1378.12
2019-05-10T08:15:02.265Z,1350.00
2019-05-10T08:16:05.351Z,1299.38
2019-05-10T08:17:06.093Z,1181.25
2019-05-10T08:18:01.180Z,984.38
2019-05-10T08:19:02.401Z,736.88
2019-05-10T08:20:01.145Z,624.38
2019-05-10T08:21:03.371Z,573.75
2019-05-10T08:22:04.462Z,568.12
2019-05-10T08:23:02.816Z,596.25
2019-05-10T08:24:05.568Z,596.25
2019-05-10T08:25:02.376Z,573.75
2019-05-10T08:26:04.463Z,613.12
2019-05-10T08:27:11.221Z,765.00
2019-05-10T08:28:05.318Z,933.75
2019-05-10T08:29:02.082Z,1096.88
2019-05-10T08:30:25.510Z,1209.38
2019-05-10T08:31:02.441Z,1305.00
2019-05-10T08:32:03.015Z,1383.75
2019-05-10T08:33:09.465Z,1456.88
2019-05-10T08:34:02.267Z,1535.62
2019-05-10T08:35:05.073Z,1603.12
2019-05-10T08:36:04.975Z,1648.12
2019-05-10T08:37:02.576Z,1681.88
2019-05-10T08:38:02.291Z,1721.25
2019-05-10T08:39:10.021Z,1749.38
2019-05-10T08:40:03.197Z,1811.25
2019-05-10T08:41:02.695Z,1974.38
2019-05-10T08:42:09.024Z,1845.00
2019-05-10T08:43:07.165Z,1721.25
2019-05-10T08:44:04.810Z,1738.12
2019-05-10T08:45:05.403Z,1755.00
2019-05-10T08:46:02.610Z,1816.88
2019-05-10T08:47:02.299Z,1890.00
2019-05-10T08:48:06.920Z,1968.75
2019-05-10T08:49:02.232Z,2013.75
2019-05-10T08:50:18.712Z,1878.75
2019-05-10T08:51:04.022Z,1794.38
2019-05-10T08:52:02.891Z,1816.88
2019-05-10T08:53:02.340Z,1721.25
2019-05-10T08:54:01.933Z,1575.00
2019-05-10T08:55:02.700Z,1440.00
2019-05-10T08:56:02.274Z,1321.88
2019-05-10T08:57:05.227Z,1220.62
2019-05-10T08:58:02.905Z,1181.25
2019-05-10T08:59:03.686Z,1164.38
2019-05-10T09:00:07.118Z,1209.38
2019-05-10T09:01:15.854Z,1276.88
2019-05-10T09:02:02.262Z,1316.25
2019-05-10T09:03:09.145Z,1344.38
2019-05-10T09:04:06.602Z,1423.12
2019-05-10T09:05:02.640Z,1507.50
2019-05-10T09:06:03.461Z,1563.75
2019-05-10T09:07:02.819Z,1642.50
2019-05-10T09:08:04.855Z,1771.88
2019-05-10T09:09:03.579Z,1890.00
2019-05-10T09:10:02.224Z,1951.88
2019-05-10T09:11:05.874Z,2070.00
2019-05-10T09:12:04.199Z,1698.75
2019-05-10T09:13:03.235Z,1546.88
2019-05-10T09:14:00.528Z,1490.62
2019-05-10T09:15:06.377Z,1524.38
2019-05-10T09:16:02.462Z,1569.38
2019-05-10T09:17:04.202Z,1518.75
2019-05-10T09:18:04.144Z,1513.12
2019-05-10T09:19:02.581Z,1518.75
2019-05-10T09:20:02.672Z,1591.88
2019-05-10T09:21:08.543Z,1710.00
2019-05-10T09:22:02.045Z,3060.00
2019-05-10T09:23:02.425Z,1861.88
2019-05-10T09:24:03.420Z,1884.38
2019-05-10T09:25:01.855Z,2036.25
2019-05-10T09:26:03.655Z,1794.38
2019-05-10T09:27:01.821Z,1822.50
2019-05-10T09:28:02.305Z,2002.50
2019-05-10T09:29:01.743Z,2244.38
2019-05-10T09:30:02.734Z,2266.88
2019-05-10T09:31:15.249Z,2773.12
2019-05-10T09:32:06.196Z,2790.00
2019-05-10T09:33:08.443Z,6131.25
2019-05-10T09:34:02.506Z,4387.50
2019-05-10T09:35:07.546Z,2520.00
2019-05-10T09:36:02.936Z,2278.12
2019-05-10T09:37:02.779Z,2289.38
2019-05-10T09:38:01.965Z,2694.38
2019-05-10T09:39:00.249Z,6271.88
2019-05-10T09:40:05.460Z,2328.75
2019-05-10T09:41:02.498Z,6615.00
2019-05-10T09:42:06.180Z,2300.62
2019-05-10T09:43:07.437Z,2722.50
2019-05-10T09:44:02.990Z,3290.62
2019-05-10T09:45:02.890Z,4691.25
2019-05-10T09:46:02.530Z,3746.25
2019-05-10T09:47:01.906Z,3442.50
2019-05-10T09:48:02.475Z,3785.62
2019-05-10T09:49:05.937Z,2109.38
2019-05-10T09:50:02.279Z,1923.75
2019-05-10T09:51:03.417Z,1873.12
2019-05-10T09:52:04.496Z,1822.50
2019-05-10T09:53:01.155Z,1940.62
2019-05-10T09:54:00.496Z,2137.50
2019-05-10T09:55:04.073Z,2283.75
2019-05-10T09:56:03.119Z,2261.25
2019-05-10T09:57:00.042Z,2806.88
2019-05-10T09:58:00.030Z,5692.50
2019-05-10T09:59:00.085Z,4393.12
2019-05-10T10:00:00.007Z,2075.62
2019-05-10T10:01:14.036Z,5551.88
2019-05-10T10:02:05.110Z,5242.50
2019-05-10T10:03:01.846Z,6193.12
2019-05-10T10:04:02.088Z,6333.75
2019-05-10T10:05:00.019Z,6367.50
2019-05-10T10:06:05.487Z,6384.38
2019-05-10T10:07:00.926Z,6525.00
2019-05-10T10:08:03.725Z,6558.75
2019-05-10T10:09:01.170Z,4404.38
2019-05-10T10:09:59.894Z,2700.00
2019-05-10T10:11:10.156Z,2368.12
2019-05-10T10:12:03.024Z,2233.12
2019-05-10T10:13:08.476Z,2092.50
2019-05-10T10:14:02.171Z,1946.25
2019-05-10T10:14:59.838Z,1873.12
2019-05-10T10:16:04.057Z,1878.75
2019-05-10T10:17:03.253Z,1918.12
2019-05-10T10:17:59.805Z,1940.62
2019-05-10T10:18:59.792Z,1822.50
2019-05-10T10:19:59.781Z,1783.12
2019-05-10T10:20:59.770Z,5017.50
2019-05-10T10:21:59.761Z,3099.38
2019-05-10T10:22:59.810Z,1918.12
2019-05-10T10:24:00.377Z,1698.75
2019-05-10T10:25:00.587Z,2188.12
2019-05-10T10:25:59.713Z,1209.38
2019-05-10T10:26:59.705Z,1125.00
2019-05-10T10:27:59.694Z,1344.38
2019-05-10T10:29:00.239Z,1636.88
2019-05-10T10:29:59.668Z,1642.50
2019-05-10T10:31:05.141Z,1828.12
2019-05-10T10:32:00.645Z,4713.75
2019-05-10T10:32:59.634Z,4826.25
2019-05-10T10:34:02.650Z,3774.38
2019-05-10T10:34:59.671Z,3318.75
2019-05-10T10:36:04.944Z,6215.62
2019-05-10T10:37:00.589Z,1861.88
2019-05-10T10:38:03.106Z,1704.38
2019-05-10T10:39:00.567Z,1704.38
2019-05-10T10:40:05.188Z,1721.25
2019-05-10T10:41:00.608Z,2008.12
2019-05-10T10:42:02.363Z,2261.25
2019-05-10T10:43:00.551Z,4680.00
2019-05-10T10:43:59.520Z,7200.00
2019-05-10T10:44:59.498Z,6975.00
2019-05-10T10:45:59.491Z,6412.50
2019-05-10T10:46:59.545Z,6243.75
2019-05-10T10:48:02.425Z,6553.12
2019-05-10T10:49:00.455Z,7070.62
2019-05-10T10:50:03.015Z,2430.00
2019-05-10T10:51:00.428Z,2036.25
2019-05-10T10:51:59.419Z,6918.75
2019-05-10T10:52:59.471Z,6766.88
2019-05-10T10:53:59.400Z,3819.38
2019-05-10T10:54:59.385Z,7155.00
2019-05-10T10:56:03.499Z,1991.25
2019-05-10T10:56:59.698Z,5017.50
2019-05-10T10:57:59.351Z,6806.25
2019-05-10T10:58:59.406Z,4871.25
2019-05-10T10:59:59.564Z,5343.75
2019-05-10T11:00:59.318Z,2638.12
2019-05-10T11:02:27.914Z,2120.62
2019-05-10T11:03:00.295Z,2216.25
2019-05-10T11:04:03.525Z,2733.75
2019-05-10T11:05:00.389Z,2784.38
2019-05-10T11:05:59.263Z,2570.62
2019-05-10T11:07:09.885Z,2745.00
2019-05-10T11:08:01.054Z,2835.00
2019-05-10T11:09:01.606Z,3076.88
2019-05-10T11:10:13.264Z,3060.00
2019-05-10T11:11:00.628Z,2818.12
2019-05-10T11:12:00.928Z,2688.75
2019-05-10T11:13:04.552Z,2683.12
2019-05-10T11:14:06.960Z,2671.88
2019-05-10T11:15:01.082Z,2745.00
2019-05-10T11:16:09.945Z,2700.00
2019-05-10T11:17:01.150Z,2958.75
2019-05-10T11:18:00.488Z,2655.00
2019-05-10T11:19:03.890Z,2773.12
2019-05-10T11:20:00.612Z,2570.62
2019-05-10T11:21:01.862Z,2621.25
2019-05-10T11:22:04.356Z,2581.88
2019-05-10T11:23:00.311Z,2469.38
2019-05-10T11:24:01.272Z,2480.62
2019-05-10T11:25:04.028Z,2581.88
2019-05-10T11:26:01.329Z,3043.12
2019-05-10T11:27:01.106Z,3189.38
2019-05-10T11:28:01.604Z,3442.50
2019-05-10T11:29:01.150Z,3026.25
2019-05-10T11:30:00.899Z,3262.50
2019-05-10T11:31:01.134Z,3060.00
2019-05-10T11:32:12.109Z,3363.75
2019-05-10T11:33:00.487Z,3802.50
2019-05-10T11:34:01.532Z,3273.75
2019-05-10T11:34:59.003Z,3375.00
2019-05-10T11:36:03.929Z,3414.38
2019-05-10T11:36:59.907Z,3268.12
2019-05-10T11:38:01.026Z,3262.50
2019-05-10T11:38:58.957Z,3037.50
2019-05-10T11:40:01.479Z,3110.62
2019-05-10T11:40:58.930Z,2761.88
2019-05-10T11:42:05.204Z,2784.38
2019-05-10T11:43:01.475Z,2756.25
2019-05-10T11:44:07.892Z,2660.62
2019-05-10T11:45:00.773Z,2581.88
2019-05-10T11:45:58.808Z,2666.25
2019-05-10T11:47:01.343Z,2565.00
2019-05-10T11:48:01.568Z,2559.38
2019-05-10T11:48:58.771Z,1845.00
2019-05-10T11:50:03.632Z,1563.75
2019-05-10T11:50:59.749Z,1518.75
2019-05-10T11:51:59.463Z,1642.50
2019-05-10T11:53:00.902Z,1704.38
2019-05-10T11:55:01.262Z,1130.62
2019-05-10T11:55:58.692Z,1068.75
2019-05-10T11:57:06.582Z,1305.00
2019-05-10T11:58:03.026Z,1721.25
2019-05-10T11:59:02.582Z,1389.38
2019-05-10T11:59:58.647Z,1546.88
2019-05-10T12:01:00.339Z,1800.00
2019-05-10T12:02:02.368Z,1586.25
2019-05-10T12:03:08.873Z,1406.25
2019-05-10T12:04:04.713Z,1552.50
2019-05-10T12:05:03.615Z,1985.62
2019-05-10T12:06:06.184Z,2340.00
2019-05-10T12:07:01.777Z,2283.75
2019-05-10T12:08:01.962Z,1996.88
2019-05-10T12:09:02.078Z,2705.62
2019-05-10T12:10:07.595Z,2143.12
2019-05-10T12:11:12.348Z,3043.12
2019-05-10T12:12:03.434Z,7256.25
2019-05-10T12:13:08.626Z,2452.50
2019-05-10T12:14:02.442Z,2925.00
2019-05-10T12:14:58.509Z,1867.50
2019-05-10T12:15:58.530Z,1743.75
2019-05-10T12:16:58.451Z,2739.38
2019-05-10T12:17:59.707Z,3504.38
2019-05-10T12:19:06.519Z,7363.12
2019-05-10T12:20:02.260Z,1816.88
2019-05-10T12:22:03.495Z,5940.00
2019-05-10T12:23:03.375Z,1687.50
2019-05-10T12:24:10.467Z,6046.88
2019-05-10T12:25:20.620Z,6356.25
2019-05-10T12:26:04.742Z,1400.62
2019-05-10T12:26:05.557Z,6952.50
2019-05-10T12:27:13.356Z,2238.75
2019-05-10T12:27:17.298Z,6851.25
2019-05-10T12:28:01.235Z,7065.00
2019-05-10T12:29:02.697Z,3369.38
2019-05-10T12:30:00.749Z,4027.50
2019-05-10T12:30:58.307Z,1968.75